sensor_id;sensor_type;location;lat;lon;timestamp;temperature;humidity
56137;DHT22;42008;52.934;5.884;2023-05-23T00:00:59;15.80;99.90
56137;DHT22;42008;52.934;5.884;2023-05-23T00:03:25;15.40;99.90
56137;DHT22;42008;52.934;5.884;2023-05-23T00:05:51;15.60;99.90
56137;DHT22;42008;52.934;5.884;2023-05-23T00:08:17;17.00;99.90
56137;DHT22;42008;52.934;5.884;2023-05-23T00:10:44;17.00;99.90
56137;DHT22;42008;52.934;5.884;2023-05-23T00:13:10;16.80;99.90
56137;DHT22;42008;52.934;5.884;2023-05-23T00:15:38;15.90;99.90
56137;DHT22;42008;52.934;5.884;2023-05-23T00:18:05;15.60;99.90
56137;DHT22;42008;52.934;5.884;2023-05-23T00:20:35;15.80;99.90
56137;DHT22;42008;52.934;5.884;2023-05-23T00:23:01;15.30;99.90
56137;DHT22;42008;52.934;5.884;2023-05-23T00:25:28;15.50;99.90
56137;DHT22;42008;52.934;5.884;2023-05-23T00:27:59;15.80;99.90
56137;DHT22;42008;52.934;5.884;2023-05-23T00:30:25;15.50;99.90
56137;DHT22;42008;52.934;5.884;2023-05-23T00:32:51;17.40;99.90
56137;DHT22;42008;52.934;5.884;2023-05-23T00:35:19;15.70;99.90
56137;DHT22;42008;52.934;5.884;2023-05-23T00:37:45;15.60;99.90
56137;DHT22;42008;52.934;5.884;2023-05-23T00:40:11;15.20;99.90
56137;DHT22;42008;52.934;5.884;2023-05-23T00:42:37;14.90;99.90
56137;DHT22;42008;52.934;5.884;2023-05-23T00:45:02;17.60;99.90
56137;DHT22;42008;52.934;5.884;2023-05-23T00:47:29;15.00;96.00
56137;DHT22;42008;52.934;5.884;2023-05-23T00:49:55;15.80;70.00
56137;DHT22;42008;52.934;5.884;2023-05-23T00:52:20;15.50;39.90
56137;DHT22;42008;52.934;5.884;2023-05-23T00:54:46;15.80;1.00
56137;DHT22;42008;52.934;5.884;2023-05-23T00:57:12;15.20;1.00
56137;DHT22;42008;52.934;5.884;2023-05-23T00:59:37;15.60;1.00
56137;DHT22;42008;52.934;5.884;2023-05-23T01:02:04;15.40;1.00
56137;DHT22;42008;52.934;5.884;2023-05-23T01:04:30;15.40;1.00
56137;DHT22;42008;52.934;5.884;2023-05-23T01:06:58;15.80;1.00
56137;DHT22;42008;52.934;5.884;2023-05-23T01:09:26;16.00;1.00
56137;DHT22;42008;52.934;5.884;2023-05-23T01:14:49;16.40;99.90
56137;DHT22;42008;52.934;5.884;2023-05-23T01:17:26;15.20;99.90
56137;DHT22;42008;52.934;5.884;2023-05-23T01:20:03;15.40;99.90
56137;DHT22;42008;52.934;5.884;2023-05-23T01:28:14;15.20;99.90
56137;DHT22;42008;52.934;5.884;2023-05-23T01:30:41;15.70;99.90
56137;DHT22;42008;52.934;5.884;2023-05-23T01:33:09;15.40;99.90
56137;DHT22;42008;52.934;5.884;2023-05-23T01:35:37;15.50;99.90
56137;DHT22;42008;52.934;5.884;2023-05-23T01:38:03;15.50;99.90
56137;DHT22;42008;52.934;5.884;2023-05-23T01:40:28;16.90;99.90
56137;DHT22;42008;52.934;5.884;2023-05-23T01:42:55;15.60;99.90
56137;DHT22;42008;52.934;5.884;2023-05-23T01:45:25;15.30;92.50
56137;DHT22;42008;52.934;5.884;2023-05-23T01:47:53;15.40;70.50
56137;DHT22;42008;52.934;5.884;2023-05-23T01:50:18;15.40;11.10
56137;DHT22;42008;52.934;5.884;2023-05-23T01:52:45;15.40;1.00
56137;DHT22;42008;52.934;5.884;2023-05-23T01:55:13;15.40;1.00
56137;DHT22;42008;52.934;5.884;2023-05-23T01:57:40;15.80;1.00
56137;DHT22;42008;52.934;5.884;2023-05-23T02:00:07;15.30;1.00
56137;DHT22;42008;52.934;5.884;2023-05-23T02:02:35;14.90;1.00
56137;DHT22;42008;52.934;5.884;2023-05-23T02:05:00;15.90;1.00
56137;DHT22;42008;52.934;5.884;2023-05-23T02:07:26;15.50;1.00
56137;DHT22;42008;52.934;5.884;2023-05-23T02:09:52;14.90;99.90
56137;DHT22;42008;52.934;5.884;2023-05-23T02:12:17;16.70;99.90
56137;DHT22;42008;52.934;5.884;2023-05-23T02:14:43;15.40;1.00
56137;DHT22;42008;52.934;5.884;2023-05-23T02:17:09;15.60;1.00
56137;DHT22;42008;52.934;5.884;2023-05-23T02:19:35;15.60;1.00
56137;DHT22;42008;52.934;5.884;2023-05-23T02:22:01;15.20;1.00
56137;DHT22;42008;52.934;5.884;2023-05-23T02:24:26;15.30;1.00
56137;DHT22;42008;52.934;5.884;2023-05-23T02:26:53;15.40;1.00
56137;DHT22;42008;52.934;5.884;2023-05-23T02:29:18;15.70;1.00
56137;DHT22;42008;52.934;5.884;2023-05-23T02:31:44;15.60;1.00
56137;DHT22;42008;52.934;5.884;2023-05-23T02:34:10;15.70;1.00
56137;DHT22;42008;52.934;5.884;2023-05-23T02:36:35;15.30;99.90
56137;DHT22;42008;52.934;5.884;2023-05-23T02:39:05;15.30;99.90
56137;DHT22;42008;52.934;5.884;2023-05-23T02:41:31;14.90;99.90
56137;DHT22;42008;52.934;5.884;2023-05-23T02:43:57;15.70;99.90
56137;DHT22;42008;52.934;5.884;2023-05-23T02:46:23;15.40;99.90
56137;DHT22;42008;52.934;5.884;2023-05-23T02:48:48;15.30;99.90
56137;DHT22;42008;52.934;5.884;2023-05-23T02:51:14;15.30;99.90
56137;DHT22;42008;52.934;5.884;2023-05-23T02:53:40;14.80;99.90
56137;DHT22;42008;52.934;5.884;2023-05-23T02:56:06;15.10;99.90
56137;DHT22;42008;52.934;5.884;2023-05-23T02:58:32;14.80;99.90
56137;DHT22;42008;52.934;5.884;2023-05-23T03:01:02;14.80;1.00
56137;DHT22;42008;52.934;5.884;2023-05-23T03:03:28;14.50;99.90
56137;DHT22;42008;52.934;5.884;2023-05-23T03:05:58;15.10;1.00
56137;DHT22;42008;52.934;5.884;2023-05-23T03:08:24;15.10;1.00
56137;DHT22;42008;52.934;5.884;2023-05-23T03:10:50;14.20;1.00
56137;DHT22;42008;52.934;5.884;2023-05-23T03:13:16;16.60;1.00
56137;DHT22;42008;52.934;5.884;2023-05-23T03:15:42;15.00;99.90
56137;DHT22;42008;52.934;5.884;2023-05-23T03:18:07;15.40;99.90
56137;DHT22;42008;52.934;5.884;2023-05-23T03:20:33;16.00;99.90
56137;DHT22;42008;52.934;5.884;2023-05-23T03:22:58;15.60;99.90
56137;DHT22;42008;52.934;5.884;2023-05-23T03:25:24;15.30;99.90
56137;DHT22;42008;52.934;5.884;2023-05-23T03:27:50;15.10;99.90
56137;DHT22;42008;52.934;5.884;2023-05-23T03:30:16;15.00;99.90
56137;DHT22;42008;52.934;5.884;2023-05-23T03:32:41;15.40;99.90
56137;DHT22;42008;52.934;5.884;2023-05-23T03:35:07;15.30;99.90
56137;DHT22;42008;52.934;5.884;2023-05-23T03:37:33;14.70;99.90
56137;DHT22;42008;52.934;5.884;2023-05-23T03:39:58;15.60;99.90
56137;DHT22;42008;52.934;5.884;2023-05-23T03:42:24;15.10;32.30
56137;DHT22;42008;52.934;5.884;2023-05-23T03:44:50;15.10;99.90
56137;DHT22;42008;52.934;5.884;2023-05-23T03:47:15;15.00;7.40
56137;DHT22;42008;52.934;5.884;2023-05-23T03:49:41;15.00;39.10
56137;DHT22;42008;52.934;5.884;2023-05-23T03:52:06;15.10;1.00
56137;DHT22;42008;52.934;5.884;2023-05-23T03:54:32;15.20;1.00
56137;DHT22;42008;52.934;5.884;2023-05-23T03:56:58;15.30;23.40
56137;DHT22;42008;52.934;5.884;2023-05-23T03:59:23;15.20;1.00
56137;DHT22;42008;52.934;5.884;2023-05-23T04:01:49;15.10;1.00
56137;DHT22;42008;52.934;5.884;2023-05-23T04:04:14;15.10;28.60
56137;DHT22;42008;52.934;5.884;2023-05-23T04:06:41;15.00;99.90
56137;DHT22;42008;52.934;5.884;2023-05-23T04:09:07;14.00;99.90
56137;DHT22;42008;52.934;5.884;2023-05-23T04:11:33;14.80;99.90
56137;DHT22;42008;52.934;5.884;2023-05-23T04:13:58;15.10;1.00
56137;DHT22;42008;52.934;5.884;2023-05-23T04:16:26;15.00;99.90
56137;DHT22;42008;52.934;5.884;2023-05-23T04:18:51;15.10;99.90
56137;DHT22;42008;52.934;5.884;2023-05-23T04:21:18;13.90;99.90
56137;DHT22;42008;52.934;5.884;2023-05-23T04:23:44;15.00;99.90
56137;DHT22;42008;52.934;5.884;2023-05-23T04:26:10;15.20;99.90
56137;DHT22;42008;52.934;5.884;2023-05-23T04:28:36;15.00;99.90
56137;DHT22;42008;52.934;5.884;2023-05-23T04:31:02;15.10;99.90
56137;DHT22;42008;52.934;5.884;2023-05-23T04:33:28;14.40;99.90
56137;DHT22;42008;52.934;5.884;2023-05-23T04:35:55;13.90;99.90
56137;DHT22;42008;52.934;5.884;2023-05-23T04:38:21;15.30;99.90
56137;DHT22;42008;52.934;5.884;2023-05-23T04:40:49;15.10;99.90
56137;DHT22;42008;52.934;5.884;2023-05-23T04:43:16;15.30;9.30
56137;DHT22;42008;52.934;5.884;2023-05-23T04:45:44;15.00;1.00
56137;DHT22;42008;52.934;5.884;2023-05-23T04:48:10;15.00;1.00
56137;DHT22;42008;52.934;5.884;2023-05-23T04:50:38;15.40;1.00
56137;DHT22;42008;52.934;5.884;2023-05-23T04:53:05;13.90;99.90
56137;DHT22;42008;52.934;5.884;2023-05-23T04:55:30;13.70;99.90
56137;DHT22;42008;52.934;5.884;2023-05-23T04:57:56;13.70;99.90
56137;DHT22;42008;52.934;5.884;2023-05-23T05:00:22;15.30;99.90
56137;DHT22;42008;52.934;5.884;2023-05-23T05:02:48;13.70;99.90
56137;DHT22;42008;52.934;5.884;2023-05-23T05:05:14;14.90;1.00
56137;DHT22;42008;52.934;5.884;2023-05-23T05:07:39;14.10;99.90
56137;DHT22;42008;52.934;5.884;2023-05-23T05:10:06;13.50;99.90
56137;DHT22;42008;52.934;5.884;2023-05-23T05:12:31;14.10;99.90
56137;DHT22;42008;52.934;5.884;2023-05-23T05:14:57;15.00;99.90
56137;DHT22;42008;52.934;5.884;2023-05-23T05:17:22;13.60;99.90
56137;DHT22;42008;52.934;5.884;2023-05-23T05:19:49;15.10;1.00
56137;DHT22;42008;52.934;5.884;2023-05-23T05:22:14;14.60;99.90
56137;DHT22;42008;52.934;5.884;2023-05-23T05:24:40;14.80;99.90
56137;DHT22;42008;52.934;5.884;2023-05-23T05:27:05;13.50;99.90
56137;DHT22;42008;52.934;5.884;2023-05-23T05:29:31;13.70;99.90
56137;DHT22;42008;52.934;5.884;2023-05-23T05:31:58;13.70;1.00
56137;DHT22;42008;52.934;5.884;2023-05-23T05:34:25;15.10;1.00
56137;DHT22;42008;52.934;5.884;2023-05-23T05:36:52;13.60;1.00
56137;DHT22;42008;52.934;5.884;2023-05-23T05:39:22;13.80;99.90
56137;DHT22;42008;52.934;5.884;2023-05-23T05:41:48;13.60;1.00
56137;DHT22;42008;52.934;5.884;2023-05-23T05:44:14;13.80;99.90
56137;DHT22;42008;52.934;5.884;2023-05-23T05:46:39;13.60;99.90
56137;DHT22;42008;52.934;5.884;2023-05-23T05:49:05;14.70;99.90
56137;DHT22;42008;52.934;5.884;2023-05-23T05:51:30;14.90;99.90
56137;DHT22;42008;52.934;5.884;2023-05-23T05:53:56;15.10;85.30
56137;DHT22;42008;52.934;5.884;2023-05-23T05:56:22;15.00;99.90
56137;DHT22;42008;52.934;5.884;2023-05-23T05:58:47;15.00;99.90
56137;DHT22;42008;52.934;5.884;2023-05-23T06:01:13;14.70;1.00
56137;DHT22;42008;52.934;5.884;2023-05-23T06:03:39;13.50;99.90
56137;DHT22;42008;52.934;5.884;2023-05-23T06:06:04;14.50;1.00
56137;DHT22;42008;52.934;5.884;2023-05-23T06:08:31;14.10;1.00
56137;DHT22;42008;52.934;5.884;2023-05-23T06:10:56;13.80;1.00
56137;DHT22;42008;52.934;5.884;2023-05-23T06:13:22;14.90;99.90
56137;DHT22;42008;52.934;5.884;2023-05-23T06:15:48;15.20;1.00
56137;DHT22;42008;52.934;5.884;2023-05-23T06:18:13;14.70;99.90
56137;DHT22;42008;52.934;5.884;2023-05-23T06:20:39;14.70;99.90
56137;DHT22;42008;52.934;5.884;2023-05-23T06:23:04;14.40;99.90
56137;DHT22;42008;52.934;5.884;2023-05-23T06:25:30;15.20;1.00
56137;DHT22;42008;52.934;5.884;2023-05-23T06:27:56;15.10;99.90
56137;DHT22;42008;52.934;5.884;2023-05-23T06:30:22;15.50;1.00
56137;DHT22;42008;52.934;5.884;2023-05-23T06:32:48;15.60;99.90
56137;DHT22;42008;52.934;5.884;2023-05-23T06:35:14;15.40;99.90
56137;DHT22;42008;52.934;5.884;2023-05-23T06:37:39;15.40;99.90
56137;DHT22;42008;52.934;5.884;2023-05-23T06:40:11;15.10;1.00
56137;DHT22;42008;52.934;5.884;2023-05-23T06:42:36;14.80;7.90
56137;DHT22;42008;52.934;5.884;2023-05-23T06:45:02;15.60;1.00
56137;DHT22;42008;52.934;5.884;2023-05-23T06:47:28;15.10;1.00
56137;DHT22;42008;52.934;5.884;2023-05-23T06:49:53;16.10;99.90
56137;DHT22;42008;52.934;5.884;2023-05-23T06:52:19;17.20;1.00
56137;DHT22;42008;52.934;5.884;2023-05-23T06:54:44;15.50;99.90
56137;DHT22;42008;52.934;5.884;2023-05-23T06:57:10;15.50;51.40
56137;DHT22;42008;52.934;5.884;2023-05-23T06:59:35;15.80;99.90
56137;DHT22;42008;52.934;5.884;2023-05-23T07:02:01;17.00;1.00
56137;DHT22;42008;52.934;5.884;2023-05-23T07:04:26;16.80;99.90
56137;DHT22;42008;52.934;5.884;2023-05-23T07:06:52;15.30;99.90
56137;DHT22;42008;52.934;5.884;2023-05-23T07:09:18;16.40;99.90
56137;DHT22;42008;52.934;5.884;2023-05-23T07:11:43;15.20;1.00
56137;DHT22;42008;52.934;5.884;2023-05-23T07:14:09;15.30;1.00
56137;DHT22;42008;52.934;5.884;2023-05-23T07:16:34;15.10;1.00
56137;DHT22;42008;52.934;5.884;2023-05-23T07:19:01;15.30;1.00
56137;DHT22;42008;52.934;5.884;2023-05-23T07:21:27;15.30;99.90
56137;DHT22;42008;52.934;5.884;2023-05-23T07:23:53;15.50;1.00
56137;DHT22;42008;52.934;5.884;2023-05-23T07:26:18;15.20;99.90
56137;DHT22;42008;52.934;5.884;2023-05-23T07:28:44;15.70;1.00
56137;DHT22;42008;52.934;5.884;2023-05-23T07:31:09;15.20;99.90
56137;DHT22;42008;52.934;5.884;2023-05-23T07:33:36;15.40;57.20
56137;DHT22;42008;52.934;5.884;2023-05-23T07:36:01;15.30;99.90
56137;DHT22;42008;52.934;5.884;2023-05-23T07:38:27;15.00;1.00
56137;DHT22;42008;52.934;5.884;2023-05-23T07:40:53;15.40;1.00
56137;DHT22;42008;52.934;5.884;2023-05-23T07:43:18;15.60;99.90
56137;DHT22;42008;52.934;5.884;2023-05-23T07:45:44;15.20;40.90
56137;DHT22;42008;52.934;5.884;2023-05-23T07:48:10;16.30;99.90
56137;DHT22;42008;52.934;5.884;2023-05-23T07:50:38;15.20;99.90
56137;DHT22;42008;52.934;5.884;2023-05-23T07:53:07;15.40;1.00
56137;DHT22;42008;52.934;5.884;2023-05-23T07:55:33;15.90;99.90
56137;DHT22;42008;52.934;5.884;2023-05-23T07:57:58;15.80;3.10
56137;DHT22;42008;52.934;5.884;2023-05-23T08:00:24;17.10;99.90
56137;DHT22;42008;52.934;5.884;2023-05-23T08:02:50;15.00;99.90
56137;DHT22;42008;52.934;5.884;2023-05-23T08:05:15;16.60;1.00
56137;DHT22;42008;52.934;5.884;2023-05-23T08:07:43;16.60;99.90
56137;DHT22;42008;52.934;5.884;2023-05-23T08:10:09;15.60;99.90
56137;DHT22;42008;52.934;5.884;2023-05-23T08:12:35;16.10;99.10
56137;DHT22;42008;52.934;5.884;2023-05-23T08:15:00;15.80;99.90
56137;DHT22;42008;52.934;5.884;2023-05-23T08:17:26;17.10;99.90
56137;DHT22;42008;52.934;5.884;2023-05-23T08:19:52;15.70;99.90
56137;DHT22;42008;52.934;5.884;2023-05-23T08:22:17;15.60;99.90
56137;DHT22;42008;52.934;5.884;2023-05-23T08:24:43;16.80;99.90
56137;DHT22;42008;52.934;5.884;2023-05-23T08:27:09;15.30;99.90
56137;DHT22;42008;52.934;5.884;2023-05-23T08:29:34;16.90;99.90
56137;DHT22;42008;52.934;5.884;2023-05-23T08:32:01;15.40;99.90
56137;DHT22;42008;52.934;5.884;2023-05-23T08:34:27;17.10;28.80
56137;DHT22;42008;52.934;5.884;2023-05-23T08:36:52;15.70;1.00
56137;DHT22;42008;52.934;5.884;2023-05-23T08:39:18;17.00;1.00
56137;DHT22;42008;52.934;5.884;2023-05-23T08:41:43;15.70;1.00
56137;DHT22;42008;52.934;5.884;2023-05-23T08:44:09;17.80;1.00
56137;DHT22;42008;52.934;5.884;2023-05-23T08:46:43;17.70;99.90
56137;DHT22;42008;52.934;5.884;2023-05-23T08:49:09;17.90;99.90
56137;DHT22;42008;52.934;5.884;2023-05-23T08:51:37;19.30;99.90
56137;DHT22;42008;52.934;5.884;2023-05-23T08:54:04;17.70;8.70
56137;DHT22;42008;52.934;5.884;2023-05-23T08:56:30;16.90;99.90
56137;DHT22;42008;52.934;5.884;2023-05-23T08:58:57;17.40;73.20
56137;DHT22;42008;52.934;5.884;2023-05-23T09:01:26;17.50;99.90
56137;DHT22;42008;52.934;5.884;2023-05-23T09:03:52;18.10;44.10
56137;DHT22;42008;52.934;5.884;2023-05-23T09:06:19;17.50;99.90
56137;DHT22;42008;52.934;5.884;2023-05-23T09:08:45;19.20;50.80
56137;DHT22;42008;52.934;5.884;2023-05-23T09:11:11;18.20;1.00
56137;DHT22;42008;52.934;5.884;2023-05-23T09:13:38;18.10;37.30
56137;DHT22;42008;52.934;5.884;2023-05-23T09:16:09;17.50;1.00
56137;DHT22;42008;52.934;5.884;2023-05-23T09:18:40;17.90;1.00
56137;DHT22;42008;52.934;5.884;2023-05-23T09:21:08;17.10;1.00
56137;DHT22;42008;52.934;5.884;2023-05-23T09:23:35;18.10;1.00
56137;DHT22;42008;52.934;5.884;2023-05-23T09:26:05;18.00;1.00
56137;DHT22;42008;52.934;5.884;2023-05-23T09:28:35;18.30;1.00
56137;DHT22;42008;52.934;5.884;2023-05-23T09:31:02;17.60;4.40
56137;DHT22;42008;52.934;5.884;2023-05-23T09:33:47;18.00;1.00
56137;DHT22;42008;52.934;5.884;2023-05-23T09:36:14;17.10;1.00
56137;DHT22;42008;52.934;5.884;2023-05-23T09:38:40;17.40;1.00
56137;DHT22;42008;52.934;5.884;2023-05-23T09:41:07;17.80;1.00
56137;DHT22;42008;52.934;5.884;2023-05-23T09:43:37;17.30;1.00
56137;DHT22;42008;52.934;5.884;2023-05-23T09:46:08;17.90;1.00
56137;DHT22;42008;52.934;5.884;2023-05-23T09:48:34;17.10;1.00
56137;DHT22;42008;52.934;5.884;2023-05-23T09:51:19;18.20;99.90
56137;DHT22;42008;52.934;5.884;2023-05-23T09:53:46;17.90;99.90
56137;DHT22;42008;52.934;5.884;2023-05-23T09:56:11;19.00;1.00
56137;DHT22;42008;52.934;5.884;2023-05-23T09:58:38;17.40;1.00
56137;DHT22;42008;52.934;5.884;2023-05-23T10:01:08;17.50;99.90
56137;DHT22;42008;52.934;5.884;2023-05-23T10:04:11;16.10;1.00
56137;DHT22;42008;52.934;5.884;2023-05-23T10:06:49;16.80;1.00
56137;DHT22;42008;52.934;5.884;2023-05-23T10:09:18;17.40;1.00
56137;DHT22;42008;52.934;5.884;2023-05-23T10:14:54;17.20;1.00
56137;DHT22;42008;52.934;5.884;2023-05-23T10:17:40;17.60;1.00
56137;DHT22;42008;52.934;5.884;2023-05-23T10:20:10;16.90;1.00
56137;DHT22;42008;52.934;5.884;2023-05-23T10:22:39;17.80;99.90
56137;DHT22;42008;52.934;5.884;2023-05-23T10:25:05;17.40;99.90
56137;DHT22;42008;52.934;5.884;2023-05-23T10:27:41;17.10;1.00
56137;DHT22;42008;52.934;5.884;2023-05-23T10:30:08;17.20;31.60
56137;DHT22;42008;52.934;5.884;2023-05-23T10:32:35;16.80;1.00
56137;DHT22;42008;52.934;5.884;2023-05-23T10:35:22;17.50;1.00
56137;DHT22;42008;52.934;5.884;2023-05-23T10:38:03;16.30;1.00
56137;DHT22;42008;52.934;5.884;2023-05-23T10:40:52;17.50;99.90
56137;DHT22;42008;52.934;5.884;2023-05-23T10:43:52;17.10;99.90
56137;DHT22;42008;52.934;5.884;2023-05-23T10:46:20;17.30;99.90
56137;DHT22;42008;52.934;5.884;2023-05-23T10:48:46;17.40;99.90
56137;DHT22;42008;52.934;5.884;2023-05-23T10:51:14;17.60;1.00
56137;DHT22;42008;52.934;5.884;2023-05-23T10:53:40;18.20;99.90
56137;DHT22;42008;52.934;5.884;2023-05-23T10:56:07;17.60;99.90
56137;DHT22;42008;52.934;5.884;2023-05-23T10:58:36;17.80;99.90
56137;DHT22;42008;52.934;5.884;2023-05-23T11:01:12;17.50;1.00
56137;DHT22;42008;52.934;5.884;2023-05-23T11:06:38;18.60;99.90
56137;DHT22;42008;52.934;5.884;2023-05-23T11:11:55;17.20;99.90
56137;DHT22;42008;52.934;5.884;2023-05-23T11:14:30;17.00;99.90
56137;DHT22;42008;52.934;5.884;2023-05-23T11:17:00;17.80;99.90
56137;DHT22;42008;52.934;5.884;2023-05-23T11:19:39;17.60;99.90
56137;DHT22;42008;52.934;5.884;2023-05-23T11:22:07;17.50;99.90
56137;DHT22;42008;52.934;5.884;2023-05-23T11:24:50;18.10;99.90
56137;DHT22;42008;52.934;5.884;2023-05-23T11:27:38;18.20;99.90
56137;DHT22;42008;52.934;5.884;2023-05-23T11:32:29;18.50;99.90
56137;DHT22;42008;52.934;5.884;2023-05-23T11:34:58;18.90;99.90
56137;DHT22;42008;52.934;5.884;2023-05-23T11:37:24;17.60;99.90
56137;DHT22;42008;52.934;5.884;2023-05-23T11:39:50;17.60;99.90
56137;DHT22;42008;52.934;5.884;2023-05-23T11:42:15;17.70;99.90
56137;DHT22;42008;52.934;5.884;2023-05-23T11:44:41;17.80;99.90
56137;DHT22;42008;52.934;5.884;2023-05-23T11:47:07;17.70;99.90
56137;DHT22;42008;52.934;5.884;2023-05-23T11:49:36;17.70;99.90
56137;DHT22;42008;52.934;5.884;2023-05-23T11:52:03;19.40;99.90
56137;DHT22;42008;52.934;5.884;2023-05-23T11:54:29;17.70;99.90
56137;DHT22;42008;52.934;5.884;2023-05-23T11:56:55;17.50;99.90
56137;DHT22;42008;52.934;5.884;2023-05-23T11:59:22;17.60;99.90
56137;DHT22;42008;52.934;5.884;2023-05-23T12:01:48;17.40;99.90
56137;DHT22;42008;52.934;5.884;2023-05-23T12:04:13;17.60;99.90
56137;DHT22;42008;52.934;5.884;2023-05-23T12:06:40;18.00;99.90
56137;DHT22;42008;52.934;5.884;2023-05-23T12:09:07;17.90;93.50
56137;DHT22;42008;52.934;5.884;2023-05-23T12:11:33;17.40;99.90
56137;DHT22;42008;52.934;5.884;2023-05-23T12:14:02;17.70;99.90
56137;DHT22;42008;52.934;5.884;2023-05-23T12:16:31;17.80;99.90
56137;DHT22;42008;52.934;5.884;2023-05-23T12:18:58;19.20;1.00
56137;DHT22;42008;52.934;5.884;2023-05-23T12:21:25;18.30;1.00
56137;DHT22;42008;52.934;5.884;2023-05-23T12:23:51;18.30;71.60
56137;DHT22;42008;52.934;5.884;2023-05-23T12:26:17;18.30;8.70
56137;DHT22;42008;52.934;5.884;2023-05-23T12:28:43;18.30;1.00
56137;DHT22;42008;52.934;5.884;2023-05-23T12:31:19;19.00;41.70
56137;DHT22;42008;52.934;5.884;2023-05-23T12:33:47;18.40;53.80
56137;DHT22;42008;52.934;5.884;2023-05-23T12:36:13;18.90;99.90
56137;DHT22;42008;52.934;5.884;2023-05-23T12:38:39;17.50;83.10
56137;DHT22;42008;52.934;5.884;2023-05-23T12:41:19;18.70;99.90
56137;DHT22;42008;52.934;5.884;2023-05-23T12:43:52;16.90;99.90
56137;DHT22;42008;52.934;5.884;2023-05-23T12:46:25;16.70;99.90
56137;DHT22;42008;52.934;5.884;2023-05-23T12:48:51;17.20;34.30
56137;DHT22;42008;52.934;5.884;2023-05-23T12:51:17;17.80;44.00
56137;DHT22;42008;52.934;5.884;2023-05-23T12:53:43;18.90;1.00
56137;DHT22;42008;52.934;5.884;2023-05-23T12:56:09;17.80;28.30
56137;DHT22;42008;52.934;5.884;2023-05-23T12:58:35;17.60;61.60
56137;DHT22;42008;52.934;5.884;2023-05-23T13:01:01;16.70;1.00
56137;DHT22;42008;52.934;5.884;2023-05-23T13:03:29;17.90;39.90
56137;DHT22;42008;52.934;5.884;2023-05-23T13:05:58;18.20;59.30
56137;DHT22;42008;52.934;5.884;2023-05-23T13:08:25;18.30;53.40
56137;DHT22;42008;52.934;5.884;2023-05-23T13:10:52;17.90;1.00
56137;DHT22;42008;52.934;5.884;2023-05-23T13:13:18;17.90;13.80
56137;DHT22;42008;52.934;5.884;2023-05-23T13:15:44;18.50;1.00
56137;DHT22;42008;52.934;5.884;2023-05-23T13:18:10;19.30;1.00
56137;DHT22;42008;52.934;5.884;2023-05-23T13:20:35;18.70;1.00
56137;DHT22;42008;52.934;5.884;2023-05-23T13:23:02;18.50;1.00
56137;DHT22;42008;52.934;5.884;2023-05-23T13:25:27;19.40;1.00
56137;DHT22;42008;52.934;5.884;2023-05-23T13:27:53;19.80;1.00
56137;DHT22;42008;52.934;5.884;2023-05-23T13:30:19;19.70;1.00
56137;DHT22;42008;52.934;5.884;2023-05-23T13:32:45;20.00;1.00
56137;DHT22;42008;52.934;5.884;2023-05-23T13:35:11;19.60;1.00
56137;DHT22;42008;52.934;5.884;2023-05-23T13:37:37;20.10;1.00
56137;DHT22;42008;52.934;5.884;2023-05-23T13:40:03;18.50;1.00
56137;DHT22;42008;52.934;5.884;2023-05-23T13:42:30;20.00;1.00
56137;DHT22;42008;52.934;5.884;2023-05-23T13:44:56;20.40;1.00
56137;DHT22;42008;52.934;5.884;2023-05-23T13:47:21;20.10;1.00
56137;DHT22;42008;52.934;5.884;2023-05-23T13:49:47;20.00;1.00
56137;DHT22;42008;52.934;5.884;2023-05-23T13:52:12;19.90;1.00
56137;DHT22;42008;52.934;5.884;2023-05-23T13:54:38;19.30;1.00
56137;DHT22;42008;52.934;5.884;2023-05-23T13:57:04;18.10;1.00
56137;DHT22;42008;52.934;5.884;2023-05-23T13:59:30;18.70;1.00
56137;DHT22;42008;52.934;5.884;2023-05-23T14:01:55;19.00;1.00
56137;DHT22;42008;52.934;5.884;2023-05-23T14:04:21;19.90;1.00
56137;DHT22;42008;52.934;5.884;2023-05-23T14:06:47;20.40;1.00
56137;DHT22;42008;52.934;5.884;2023-05-23T14:09:13;19.90;1.00
56137;DHT22;42008;52.934;5.884;2023-05-23T14:11:39;20.40;1.00
56137;DHT22;42008;52.934;5.884;2023-05-23T14:14:04;19.90;1.00
56137;DHT22;42008;52.934;5.884;2023-05-23T14:16:30;20.10;1.00
56137;DHT22;42008;52.934;5.884;2023-05-23T14:18:56;20.20;1.00
56137;DHT22;42008;52.934;5.884;2023-05-23T14:21:22;19.90;1.00
56137;DHT22;42008;52.934;5.884;2023-05-23T14:23:47;18.30;1.00
56137;DHT22;42008;52.934;5.884;2023-05-23T14:26:13;20.00;1.00
56137;DHT22;42008;52.934;5.884;2023-05-23T14:28:39;19.50;1.00
56137;DHT22;42008;52.934;5.884;2023-05-23T14:31:04;20.20;1.00
56137;DHT22;42008;52.934;5.884;2023-05-23T14:33:30;20.50;1.00
56137;DHT22;42008;52.934;5.884;2023-05-23T14:35:56;20.90;1.00
56137;DHT22;42008;52.934;5.884;2023-05-23T14:38:22;20.50;1.00
56137;DHT22;42008;52.934;5.884;2023-05-23T14:40:47;20.80;99.90
56137;DHT22;42008;52.934;5.884;2023-05-23T14:43:14;21.40;1.00
56137;DHT22;42008;52.934;5.884;2023-05-23T14:45:39;21.30;1.00
56137;DHT22;42008;52.934;5.884;2023-05-23T14:48:06;20.80;1.00
56137;DHT22;42008;52.934;5.884;2023-05-23T14:50:31;20.10;1.00
56137;DHT22;42008;52.934;5.884;2023-05-23T14:52:57;20.10;99.90
56137;DHT22;42008;52.934;5.884;2023-05-23T14:55:24;19.70;99.90
56137;DHT22;42008;52.934;5.884;2023-05-23T14:57:50;20.40;99.90
56137;DHT22;42008;52.934;5.884;2023-05-23T15:00:16;20.40;99.90
56137;DHT22;42008;52.934;5.884;2023-05-23T15:02:42;18.80;99.90
56137;DHT22;42008;52.934;5.884;2023-05-23T15:05:08;20.40;99.90
56137;DHT22;42008;52.934;5.884;2023-05-23T15:07:33;21.40;99.90
56137;DHT22;42008;52.934;5.884;2023-05-23T15:10:00;22.20;99.90
56137;DHT22;42008;52.934;5.884;2023-05-23T15:12:27;21.80;99.90
56137;DHT22;42008;52.934;5.884;2023-05-23T15:14:53;22.30;99.90
56137;DHT22;42008;52.934;5.884;2023-05-23T15:17:18;20.40;99.90
56137;DHT22;42008;52.934;5.884;2023-05-23T15:19:46;20.20;99.90
56137;DHT22;42008;52.934;5.884;2023-05-23T15:22:12;20.90;99.90
56137;DHT22;42008;52.934;5.884;2023-05-23T15:24:38;20.70;99.90
56137;DHT22;42008;52.934;5.884;2023-05-23T15:27:03;19.50;99.90
56137;DHT22;42008;52.934;5.884;2023-05-23T15:29:29;18.80;99.90
56137;DHT22;42008;52.934;5.884;2023-05-23T15:31:57;20.20;99.90
56137;DHT22;42008;52.934;5.884;2023-05-23T15:34:23;20.30;99.90
56137;DHT22;42008;52.934;5.884;2023-05-23T15:36:48;19.50;99.90
56137;DHT22;42008;52.934;5.884;2023-05-23T15:39:15;20.10;99.90
56137;DHT22;42008;52.934;5.884;2023-05-23T15:41:41;20.20;99.90
56137;DHT22;42008;52.934;5.884;2023-05-23T15:44:07;19.80;99.90
56137;DHT22;42008;52.934;5.884;2023-05-23T15:46:33;20.20;99.90
56137;DHT22;42008;52.934;5.884;2023-05-23T15:48:58;20.60;99.90
56137;DHT22;42008;52.934;5.884;2023-05-23T15:51:27;19.90;99.90
56137;DHT22;42008;52.934;5.884;2023-05-23T15:53:53;19.60;99.90
56137;DHT22;42008;52.934;5.884;2023-05-23T15:56:19;18.50;99.90